Linton-on-ouse, United Kingdom
Current Conditions -  °F | °C
As of 9:50 PM on Monday 26 Jan 2015 (Local Time) from EGXU Reporting Station
Clear Clear  
Wind Chill:   Ceiling: Unl
Heat Index:   Visibility: 6mi
Dew Point: -1°   Wind: 8mph
Humidity: 70%   Direction: 220°SW
Pressure: 30.27"   Gusts: NA
Location:  54.05°N, 1.25°W
Report Text: EGXU 262150Z AUTO 22007KT 9999 // NCD 04/M01 Q1025
Loading
Personal Weather Stations






























Interactive Weather Map New forecast layout! Learn more

10-Day Weather Forecast

Advertisements
Track Severe Weather on mobile